Time;durP1;ratioP1;P1;durP2;ratioP2;P2;SDS_P1;SDS_P2;PMS_P1;PMS_P2;Temp;Humidity;BMP_temperature;BMP_pressure;BME280_temperature;BME280_humidity;BME280_pressure;Samples;Min_cycle;Max_cycle;Signal;HPM_P1;HPM_P2
2023/10/29 00:00:31;;;;;;;1999.90;999.90;;;;;;;;;;4952984;28;20015;-69
2023/10/29 00:02:57;;;;;;;1999.90;999.90;;;;;;;;;;4936008;29;20027;-70
2023/10/29 00:05:24;;;;;;;1999.90;999.90;;;;;;;;;;4952607;28;20032;-73
2023/10/29 00:07:50;;;;;;;1999.90;999.90;;;;;;;;;;4952537;28;20047;-73
2023/10/29 00:10:19;;;;;;;1999.90;999.90;;;;;;;;;;4953174;29;20038;-70
2023/10/29 00:12:45;;;;;;;1999.90;999.90;;;;;;;;;;4952709;29;20043;-73
2023/10/29 00:15:11;;;;;;;1999.90;999.90;;;;;;;;;;4953019;28;20036;-73
2023/10/29 00:17:38;;;;;;;1999.90;999.90;;;;;;;;;;4952884;29;20117;-70
2023/10/29 00:20:07;;;;;;;1999.90;999.90;;;;;;;;;;4953142;29;20035;-71
2023/10/29 00:22:33;;;;;;;1999.90;999.90;;;;;;;;;;4952915;29;20035;-70
2023/10/29 00:25:00;;;;;;;1999.90;999.90;;;;;;;;;;4952968;28;20019;-70
2023/10/29 00:27:26;;;;;;;1999.90;999.90;;;;;;;;;;4952804;28;20027;-71
2023/10/29 00:29:52;;;;;;;1999.90;999.90;;;;;;;;;;4952905;29;20026;-70
2023/10/29 00:32:21;;;;;;;1999.90;999.90;;;;;;;;;;4952675;29;20043;-69
2023/10/29 00:34:48;;;;;;;1999.90;999.90;;;;;;;;;;4956225;28;20031;-69
2023/10/29 00:37:14;;;;;;;1999.90;999.90;;;;;;;;;;4958976;29;20028;-71
2023/10/29 00:39:40;;;;;;;1999.90;999.90;;;;;;;;;;4958844;28;20035;-69
2023/10/29 00:42:07;;;;;;;1999.90;999.90;;;;;;;;;;4958942;29;20031;-70
2023/10/29 00:44:33;;;;;;;1999.90;999.90;;;;;;;;;;4958823;28;20023;-72
2023/10/29 00:46:59;;;;;;;1999.90;999.90;;;;;;;;;;4958913;28;20019;-69
2023/10/29 00:49:25;;;;;;;1999.90;999.90;;;;;;;;;;4959156;28;20023;-69
2023/10/29 00:51:51;;;;;;;1999.90;999.90;;;;;;;;;;4958746;28;20043;-69
2023/10/29 00:54:17;;;;;;;1999.90;999.90;;;;;;;;;;4941632;29;20118;-71
2023/10/29 00:56:43;;;;;;;1999.90;999.90;;;;;;;;;;4958872;28;20042;-70
2023/10/29 00:59:11;;;;;;;1999.90;999.90;;;;;;;;;;4958781;28;20451;-72
2023/10/29 01:01:38;;;;;;;1999.90;999.90;;;;;;;;;;4958804;28;20097;-69
2023/10/29 01:04:04;;;;;;;1999.90;999.90;;;;;;;;;;4958445;28;20028;-72
2023/10/29 01:06:38;;;;;;;1999.90;999.90;;;;;;;;;;4958373;28;20031;-69
2023/10/29 01:09:05;;;;;;;1999.90;999.90;;;;;;;;;;4958800;28;20043;-71
2023/10/29 01:11:32;;;;;;;1999.90;999.90;;;;;;;;;;4958609;28;20031;-71
2023/10/29 01:13:58;;;;;;;1999.90;999.90;;;;;;;;;;4958800;28;20054;-70
2023/10/29 01:16:24;;;;;;;1999.90;999.90;;;;;;;;;;4958917;28;20777;-72
2023/10/29 01:18:51;;;;;;;1999.90;999.90;;;;;;;;;;4958763;28;20085;-69
2023/10/29 01:21:17;;;;;;;1999.90;999.90;;;;;;;;;;4958907;28;20832;-69
2023/10/29 01:23:43;;;;;;;1999.90;999.90;;;;;;;;;;4958718;28;20024;-70
2023/10/29 01:26:09;;;;;;;1999.90;999.90;;;;;;;;;;4958572;28;20027;-71
2023/10/29 01:28:35;;;;;;;1999.90;999.90;;;;;;;;;;4958640;29;20645;-71
2023/10/29 01:31:02;;;;;;;1999.90;999.90;;;;;;;;;;4958574;29;20039;-68
2023/10/29 01:33:28;;;;;;;1999.90;999.90;;;;;;;;;;4958556;29;20418;-71
2023/10/29 01:35:54;;;;;;;1999.90;999.90;;;;;;;;;;4958250;28;20591;-69
2023/10/29 01:38:20;;;;;;;1999.90;999.90;;;;;;;;;;4958117;29;20550;-69
2023/10/29 01:40:46;;;;;;;1999.90;999.90;;;;;;;;;;4958409;28;20070;-69
2023/10/29 01:43:12;;;;;;;1999.90;999.90;;;;;;;;;;4958166;29;20035;-71
2023/10/29 01:45:38;;;;;;;1999.90;999.90;;;;;;;;;;4956606;28;20658;-69
2023/10/29 01:48:04;;;;;;;1999.90;999.90;;;;;;;;;;4955448;29;20356;-69
2023/10/29 01:50:30;;;;;;;1999.90;999.90;;;;;;;;;;4955368;28;20075;-72
2023/10/29 01:52:57;;;;;;;1999.90;999.90;;;;;;;;;;4938024;29;20098;-70
2023/10/29 01:55:23;;;;;;;1999.90;999.90;;;;;;;;;;4955480;28;20078;-72
2023/10/29 01:57:49;;;;;;;1999.90;999.90;;;;;;;;;;4955161;29;20043;-72
2023/10/29 02:00:15;;;;;;;1999.90;999.90;;;;;;;;;;4955335;29;20535;-71
2023/10/29 02:02:41;;;;;;;1999.90;999.90;;;;;;;;;;4955182;29;20517;-69
2023/10/29 02:05:07;;;;;;;1999.90;999.90;;;;;;;;;;4955462;28;20035;-72
2023/10/29 02:07:34;;;;;;;1999.90;999.90;;;;;;;;;;4954518;28;20562;-72
2023/10/29 02:10:00;;;;;;;1999.90;999.90;;;;;;;;;;4955135;28;20058;-71
2023/10/29 02:12:26;;;;;;;1999.90;999.90;;;;;;;;;;4955240;28;20429;-72
2023/10/29 02:14:52;;;;;;;1999.90;999.90;;;;;;;;;;4954885;28;20019;-69
2023/10/29 02:17:18;;;;;;;1999.90;999.90;;;;;;;;;;4955055;28;20042;-70
2023/10/29 02:19:44;;;;;;;1999.90;999.90;;;;;;;;;;4955010;28;20027;-69
2023/10/29 02:22:10;;;;;;;1999.90;999.90;;;;;;;;;;4954831;28;20038;-72
2023/10/29 02:24:36;;;;;;;1999.90;999.90;;;;;;;;;;4954991;29;20042;-69
2023/10/29 02:27:02;;;;;;;1999.90;999.90;;;;;;;;;;4954894;28;20038;-71
2023/10/29 02:29:28;;;;;;;1999.90;999.90;;;;;;;;;;4954835;28;20035;-70
2023/10/29 02:31:54;;;;;;;1999.90;999.90;;;;;;;;;;4954597;29;20030;-70
2023/10/29 02:34:20;;;;;;;1999.90;999.90;;;;;;;;;;4954752;29;20080;-70
2023/10/29 02:36:46;;;;;;;1999.90;999.90;;;;;;;;;;4954322;28;20023;-70
2023/10/29 02:39:13;;;;;;;1999.90;999.90;;;;;;;;;;4954405;28;20031;-72
2023/10/29 02:41:39;;;;;;;1999.90;999.90;;;;;;;;;;4954426;29;20031;-69
2023/10/29 02:44:05;;;;;;;1999.90;999.90;;;;;;;;;;4954546;28;20030;-69
2023/10/29 02:46:31;;;;;;;1999.90;999.90;;;;;;;;;;4954369;29;20475;-69
2023/10/29 02:48:57;;;;;;;1999.90;999.90;;;;;;;;;;4954465;28;20475;-71
2023/10/29 02:51:23;;;;;;;1999.90;999.90;;;;;;;;;;4954275;28;20023;-69
2023/10/29 02:53:49;;;;;;;1999.90;999.90;;;;;;;;;;4954286;28;20046;-70
2023/10/29 02:56:15;;;;;;;1999.90;999.90;;;;;;;;;;4954439;29;20479;-71
2023/10/29 02:58:41;;;;;;;1999.90;999.90;;;;;;;;;;4953137;28;20118;-69
2023/10/29 03:01:08;;;;;;;1999.90;999.90;;;;;;;;;;4953906;29;20062;-73
2023/10/29 03:03:37;;;;;;;1999.90;999.90;;;;;;;;;;4954066;29;20381;-72
2023/10/29 03:06:07;;;;;;;1999.90;999.90;;;;;;;;;;4953608;29;20085;-71
2023/10/29 03:08:33;;;;;;;1999.90;999.90;;;;;;;;;;4953528;28;20083;-69
2023/10/29 03:10:59;;;;;;;1999.90;999.90;;;;;;;;;;4953901;29;20098;-69
2023/10/29 03:13:25;;;;;;;1999.90;999.90;;;;;;;;;;4953629;28;20043;-69
2023/10/29 03:15:51;;;;;;;1999.90;999.90;;;;;;;;;;4953927;29;20078;-73
2023/10/29 03:18:17;;;;;;;1999.90;999.90;;;;;;;;;;4953802;29;20070;-70
2023/10/29 03:20:43;;;;;;;1999.90;999.90;;;;;;;;;;4953682;28;20106;-69
2023/10/29 03:23:10;;;;;;;1999.90;999.90;;;;;;;;;;4953656;29;20452;-72
2023/10/29 03:25:36;;;;;;;1999.90;999.90;;;;;;;;;;4953741;29;20110;-70
2023/10/29 03:28:02;;;;;;;1999.90;999.90;;;;;;;;;;4953684;29;20031;-69
2023/10/29 03:30:28;;;;;;;1999.90;999.90;;;;;;;;;;4953676;29;20031;-69
2023/10/29 03:32:54;;;;;;;1999.90;999.90;;;;;;;;;;4953409;29;20051;-73
2023/10/29 03:35:20;;;;;;;1999.90;999.90;;;;;;;;;;4953830;28;20106;-70
2023/10/29 03:37:46;;;;;;;1999.90;999.90;;;;;;;;;;4953138;29;20483;-71
2023/10/29 03:40:12;;;;;;;1999.90;999.90;;;;;;;;;;4953138;28;20221;-71
2023/10/29 03:42:38;;;;;;;1999.90;999.90;;;;;;;;;;4953436;29;20039;-72
2023/10/29 03:45:04;;;;;;;1999.90;999.90;;;;;;;;;;4953323;29;20023;-72
2023/10/29 03:47:31;;;;;;;1999.90;999.90;;;;;;;;;;4953397;29;20067;-73
2023/10/29 03:49:57;;;;;;;1999.90;999.90;;;;;;;;;;4953539;29;20023;-69
2023/10/29 03:52:23;;;;;;;1999.90;999.90;;;;;;;;;;4953207;29;20040;-69
2023/10/29 03:54:49;;;;;;;1999.90;999.90;;;;;;;;;;4953435;29;20035;-70
2023/10/29 03:57:15;;;;;;;1999.90;999.90;;;;;;;;;;4953284;29;20032;-73
2023/10/29 03:59:41;;;;;;;1999.90;999.90;;;;;;;;;;4953201;28;20110;-70
2023/10/29 04:02:07;;;;;;;1999.90;999.90;;;;;;;;;;4953195;29;20391;-70
2023/10/29 04:04:34;;;;;;;1999.90;999.90;;;;;;;;;;4953021;29;20038;-72
2023/10/29 04:07:00;;;;;;;1999.90;999.90;;;;;;;;;;4952755;28;20204;-69
2023/10/29 04:09:26;;;;;;;1999.90;999.90;;;;;;;;;;4952666;28;20094;-73
2023/10/29 04:11:53;;;;;;;1999.90;999.90;;;;;;;;;;4952897;29;20034;-70
2023/10/29 04:14:19;;;;;;;1999.90;999.90;;;;;;;;;;4953222;29;20640;-70
2023/10/29 04:16:45;;;;;;;1999.90;999.90;;;;;;;;;;4952739;29;20186;-71
2023/10/29 04:19:11;;;;;;;1999.90;999.90;;;;;;;;;;4935639;29;20542;-71
2023/10/29 04:21:37;;;;;;;1999.90;999.90;;;;;;;;;;4952766;28;20035;-69
2023/10/29 04:24:03;;;;;;;1999.90;999.90;;;;;;;;;;4952663;29;20027;-69
2023/10/29 04:26:30;;;;;;;1999.90;999.90;;;;;;;;;;4952749;29;20023;-69
2023/10/29 04:28:57;;;;;;;1999.90;999.90;;;;;;;;;;4952470;29;20031;-69
2023/10/29 04:31:23;;;;;;;1999.90;999.90;;;;;;;;;;4952484;29;20035;-71
2023/10/29 04:33:49;;;;;;;1999.90;999.90;;;;;;;;;;4952562;29;20050;-72
2023/10/29 04:36:25;;;;;;;1999.90;999.90;;;;;;;;;;4952422;29;20027;-72
2023/10/29 04:38:52;;;;;;;1999.90;999.90;;;;;;;;;;4952675;29;20035;-70
2023/10/29 04:41:18;;;;;;;1999.90;999.90;;;;;;;;;;4945501;29;20484;-68
2023/10/29 04:43:44;;;;;;;1999.90;999.90;;;;;;;;;;4933322;29;20059;-68
2023/10/29 04:46:10;;;;;;;1999.90;999.90;;;;;;;;;;4933298;29;20031;-69
2023/10/29 04:48:37;;;;;;;1999.90;999.90;;;;;;;;;;4933202;29;20079;-69
2023/10/29 04:51:06;;;;;;;1999.90;999.90;;;;;;;;;;4933196;29;20476;-68
2023/10/29 04:53:32;;;;;;;1999.90;999.90;;;;;;;;;;4933245;29;20130;-69
2023/10/29 04:55:58;;;;;;;1999.90;999.90;;;;;;;;;;4933419;29;20060;-69
2023/10/29 04:58:24;;;;;;;1999.90;999.90;;;;;;;;;;4933225;29;20043;-69
2023/10/29 05:00:51;;;;;;;1999.90;999.90;;;;;;;;;;4933200;29;20031;-71
2023/10/29 05:03:17;;;;;;;1999.90;999.90;;;;;;;;;;4933146;29;20119;-72
2023/10/29 05:05:43;;;;;;;1999.90;999.90;;;;;;;;;;4932868;29;20066;-70
2023/10/29 05:08:09;;;;;;;1999.90;999.90;;;;;;;;;;4933025;29;20052;-71
2023/10/29 05:10:35;;;;;;;1999.90;999.90;;;;;;;;;;4915531;29;20028;-71
2023/10/29 05:13:02;;;;;;;1999.90;999.90;;;;;;;;;;4932747;29;20059;-72
2023/10/29 05:15:28;;;;;;;1999.90;999.90;;;;;;;;;;4933266;29;20480;-72
2023/10/29 05:17:55;;;;;;;1999.90;999.90;;;;;;;;;;4933179;29;20039;-72
2023/10/29 05:20:21;;;;;;;1999.90;999.90;;;;;;;;;;4933142;29;20483;-70
2023/10/29 05:22:47;;;;;;;1999.90;999.90;;;;;;;;;;4937135;29;20956;-70
2023/10/29 05:25:13;;;;;;;1999.90;999.90;;;;;;;;;;4955801;29;20763;-68
2023/10/29 05:27:39;;;;;;;1999.90;999.90;;;;;;;;;;4955603;29;20479;-70
2023/10/29 05:30:06;;;;;;;1999.90;999.90;;;;;;;;;;4955427;29;20053;-71
2023/10/29 05:32:33;;;;;;;1999.90;999.90;;;;;;;;;;4955608;29;20042;-70
2023/10/29 05:34:59;;;;;;;1999.90;999.90;;;;;;;;;;4955668;29;20106;-68
2023/10/29 05:37:25;;;;;;;1999.90;999.90;;;;;;;;;;4955201;29;20031;-68
2023/10/29 05:39:55;;;;;;;1999.90;999.90;;;;;;;;;;4955559;29;20078;-68
2023/10/29 05:42:21;;;;;;;1999.90;999.90;;;;;;;;;;4940792;29;20024;-68
2023/10/29 05:44:47;;;;;;;1999.90;999.90;;;;;;;;;;4936299;29;20024;-71
2023/10/29 05:47:13;;;;;;;1999.90;999.90;;;;;;;;;;4934992;29;20055;-70
2023/10/29 05:49:40;;;;;;;1999.90;999.90;;;;;;;;;;4935998;29;20024;-70
2023/10/29 05:52:06;;;;;;;1999.90;999.90;;;;;;;;;;4934449;29;20031;-70
2023/10/29 05:54:32;;;;;;;1999.90;999.90;;;;;;;;;;4952116;29;20038;-72
2023/10/29 05:56:58;;;;;;;1999.90;999.90;;;;;;;;;;4943524;29;20031;-69
2023/10/29 05:59:25;;;;;;;1999.90;999.90;;;;;;;;;;4936161;29;20055;-69
2023/10/29 06:01:51;;;;;;;1999.90;999.90;;;;;;;;;;4935230;29;20027;-69
2023/10/29 06:04:17;;;;;;;1999.90;999.90;;;;;;;;;;4935859;29;20038;-69
2023/10/29 06:06:44;;;;;;;1999.90;999.90;;;;;;;;;;4945912;28;20069;-69
2023/10/29 06:09:10;;;;;;;1999.90;999.90;;;;;;;;;;4954791;29;20055;-68
2023/10/29 06:11:36;;;;;;;1999.90;999.90;;;;;;;;;;4954813;29;20035;-68
2023/10/29 06:14:02;;;;;;;1999.90;999.90;;;;;;;;;;4955051;29;20041;-70
2023/10/29 06:16:28;;;;;;;1999.90;999.90;;;;;;;;;;4954792;29;20467;-67
2023/10/29 06:18:55;;;;;;;1999.90;999.90;;;;;;;;;;4954957;29;20499;-72
2023/10/29 06:21:21;;;;;;;1999.90;999.90;;;;;;;;;;4942114;29;20103;-71
2023/10/29 06:23:47;;;;;;;1999.90;999.90;;;;;;;;;;4949257;29;20070;-70
2023/10/29 06:26:14;;;;;;;1999.90;999.90;;;;;;;;;;4954527;29;20023;-71
2023/10/29 06:28:40;;;;;;;1999.90;999.90;;;;;;;;;;4954775;29;20067;-71
2023/10/29 06:31:06;;;;;;;1999.90;999.90;;;;;;;;;;4954351;29;20031;-71
2023/10/29 06:33:32;;;;;;;1999.90;999.90;;;;;;;;;;4954125;28;20035;-73
2023/10/29 06:36:00;;;;;;;1999.90;999.90;;;;;;;;;;4954739;29;20031;-74
2023/10/29 06:38:26;;;;;;;1999.90;999.90;;;;;;;;;;4954352;28;20039;-71
2023/10/29 06:40:52;;;;;;;1999.90;999.90;;;;;;;;;;4954621;29;20034;-73
2023/10/29 06:43:18;;;;;;;1999.90;999.90;;;;;;;;;;4954364;29;20106;-72
2023/10/29 06:45:44;;;;;;;1999.90;999.90;;;;;;;;;;4954261;29;20185;-69
2023/10/29 06:48:10;;;;;;;1999.90;999.90;;;;;;;;;;4954376;29;20027;-68
2023/10/29 06:50:36;;;;;;;1999.90;999.90;;;;;;;;;;4954272;28;20020;-68
2023/10/29 06:53:05;;;;;;;1999.90;999.90;;;;;;;;;;4953799;28;20068;-67
2023/10/29 06:55:31;;;;;;;1999.90;999.90;;;;;;;;;;4954280;29;20384;-73
2023/10/29 06:57:57;;;;;;;1999.90;999.90;;;;;;;;;;4954205;28;20031;-70
2023/10/29 07:00:23;;;;;;;1999.90;999.90;;;;;;;;;;4954686;28;20023;-71
2023/10/29 07:02:50;;;;;;;1999.90;999.90;;;;;;;;;;4953715;28;20035;-70
2023/10/29 07:05:16;;;;;;;1999.90;999.90;;;;;;;;;;4949449;28;20522;-68
2023/10/29 07:07:43;;;;;;;1999.90;999.90;;;;;;;;;;4937597;29;20043;-69
2023/10/29 07:10:09;;;;;;;1999.90;999.90;;;;;;;;;;4947116;29;20126;-64
2023/10/29 07:12:35;;;;;;;1999.90;999.90;;;;;;;;;;4943939;29;20042;-67
2023/10/29 07:15:01;;;;;;;1999.90;999.90;;;;;;;;;;4925455;29;20383;-65
2023/10/29 07:17:27;;;;;;;1999.90;999.90;;;;;;;;;;4944336;29;20027;-64
2023/10/29 07:19:54;;;;;;;1999.90;999.90;;;;;;;;;;4952067;29;20027;-66
2023/10/29 07:22:20;;;;;;;1999.90;999.90;;;;;;;;;;4953280;29;20034;-68
2023/10/29 07:24:46;;;;;;;1999.90;999.90;;;;;;;;;;4953866;29;20086;-65
2023/10/29 07:27:12;;;;;;;1999.90;999.90;;;;;;;;;;4953665;29;20057;-65
2023/10/29 07:29:38;;;;;;;1999.90;999.90;;;;;;;;;;4953513;29;20106;-64
2023/10/29 07:32:04;;;;;;;1999.90;999.90;;;;;;;;;;4953123;28;20035;-69
2023/10/29 07:34:30;;;;;;;1999.90;999.90;;;;;;;;;;4953455;29;20360;-69
2023/10/29 07:36:57;;;;;;;1999.90;999.90;;;;;;;;;;4953073;29;20061;-64
2023/10/29 07:39:23;;;;;;;1999.90;999.90;;;;;;;;;;4953606;29;20046;-66
2023/10/29 07:41:49;;;;;;;1999.90;999.90;;;;;;;;;;4952916;29;20027;-69
2023/10/29 07:44:15;;;;;;;1999.90;999.90;;;;;;;;;;4952279;28;20023;-69
2023/10/29 07:46:41;;;;;;;1999.90;999.90;;;;;;;;;;4951751;28;20050;-67
2023/10/29 07:49:07;;;;;;;1999.90;999.90;;;;;;;;;;4950036;28;20019;-63
2023/10/29 07:51:33;;;;;;;1999.90;999.90;;;;;;;;;;4943113;29;20028;-71
2023/10/29 07:53:59;;;;;;;1999.90;999.90;;;;;;;;;;4944221;29;20050;-66
2023/10/29 07:56:25;;;;;;;1999.90;999.90;;;;;;;;;;4943743;29;20586;-72
2023/10/29 07:58:58;;;;;;;1999.90;999.90;;;;;;;;;;4946909;29;20043;-71
2023/10/29 08:01:24;;;;;;;1999.90;999.90;;;;;;;;;;4947298;29;20039;-68
2023/10/29 08:03:51;;;;;;;1999.90;999.90;;;;;;;;;;4942724;29;20023;-65
2023/10/29 08:06:17;;;;;;;1999.90;999.90;;;;;;;;;;4941796;29;20026;-71
2023/10/29 08:08:43;;;;;;;1999.90;999.90;;;;;;;;;;4937607;28;20076;-67
2023/10/29 08:11:21;;;;;;;1999.90;999.90;;;;;;;;;;4933837;29;20031;-66
2023/10/29 08:13:53;;;;;;;1999.90;999.90;;;;;;;;;;4949653;29;20395;-69
2023/10/29 08:16:24;;;;;;;1999.90;999.90;;;;;;;;;;4947524;29;20036;-65
2023/10/29 08:18:50;;;;;;;1999.90;999.90;;;;;;;;;;4952677;29;20043;-73
2023/10/29 08:21:17;;;;;;;1999.90;999.90;;;;;;;;;;4952592;29;20083;-68
2023/10/29 08:23:43;;;;;;;1999.90;999.90;;;;;;;;;;4952687;28;20063;-62
2023/10/29 08:26:09;;;;;;;1999.90;999.90;;;;;;;;;;4952888;29;20055;-62
2023/10/29 08:28:39;;;;;;;1999.90;999.90;;;;;;;;;;4952566;29;20038;-66
2023/10/29 08:31:05;;;;;;;1999.90;999.90;;;;;;;;;;4952767;29;20554;-64
2023/10/29 08:33:31;;;;;;;1999.90;999.90;;;;;;;;;;4947730;29;20043;-70
2023/10/29 08:35:57;;;;;;;1999.90;999.90;;;;;;;;;;4943130;29;20108;-65
2023/10/29 08:38:23;;;;;;;1999.90;999.90;;;;;;;;;;4941400;29;20063;-68
2023/10/29 08:40:49;;;;;;;1999.90;999.90;;;;;;;;;;4942780;29;20026;-64
2023/10/29 08:43:16;;;;;;;1999.90;999.90;;;;;;;;;;4942878;29;20074;-63
2023/10/29 08:45:42;;;;;;;1999.90;999.90;;;;;;;;;;4940737;29;20531;-67
2023/10/29 08:48:08;;;;;;;1999.90;999.90;;;;;;;;;;4941009;29;20039;-69
2023/10/29 08:50:34;;;;;;;1999.90;999.90;;;;;;;;;;4941272;29;20112;-65
2023/10/29 08:53:01;;;;;;;1999.90;999.90;;;;;;;;;;4937800;29;20035;-67
2023/10/29 08:55:27;;;;;;;1999.90;999.90;;;;;;;;;;4934792;29;20027;-63
2023/10/29 08:57:53;;;;;;;1999.90;999.90;;;;;;;;;;4937081;29;20511;-62
2023/10/29 09:00:19;;;;;;;1999.90;999.90;;;;;;;;;;4937184;29;20479;-63
2023/10/29 09:02:46;;;;;;;1999.90;999.90;;;;;;;;;;4936686;29;20027;-63
2023/10/29 09:05:12;;;;;;;1999.90;999.90;;;;;;;;;;4936805;29;20440;-69
2023/10/29 09:07:38;;;;;;;1999.90;999.90;;;;;;;;;;4936188;29;20488;-63
2023/10/29 09:10:04;;;;;;;1999.90;999.90;;;;;;;;;;4936858;29;20036;-63
2023/10/29 09:12:30;;;;;;;1999.90;999.90;;;;;;;;;;4936310;29;20048;-63
2023/10/29 09:14:57;;;;;;;1999.90;999.90;;;;;;;;;;4936767;29;20110;-72
2023/10/29 09:17:23;;;;;;;1999.90;999.90;;;;;;;;;;4936694;29;20027;-68
2023/10/29 09:19:50;;;;;;;1999.90;999.90;;;;;;;;;;4936490;29;20031;-65
2023/10/29 09:22:16;;;;;;;1999.90;999.90;;;;;;;;;;4936421;29;20027;-69
2023/10/29 09:24:42;;;;;;;1999.90;999.90;;;;;;;;;;4936465;29;20024;-64
2023/10/29 09:27:08;;;;;;;1999.90;999.90;;;;;;;;;;4936684;29;20502;-71
2023/10/29 09:29:36;;;;;;;1999.90;999.90;;;;;;;;;;4936357;29;20556;-70
2023/10/29 09:32:04;;;;;;;1999.90;999.90;;;;;;;;;;4936504;29;20039;-65
2023/10/29 09:34:32;;;;;;;1999.90;999.90;;;;;;;;;;4936249;29;20071;-63
2023/10/29 09:36:58;;;;;;;1999.90;999.90;;;;;;;;;;4936116;29;20476;-63
2023/10/29 09:39:24;;;;;;;1999.90;999.90;;;;;;;;;;4935926;29;20031;-64
2023/10/29 09:41:55;;;;;;;1999.90;999.90;;;;;;;;;;4936046;29;20023;-68
2023/10/29 09:44:22;;;;;;;1999.90;999.90;;;;;;;;;;4935702;29;20028;-72
2023/10/29 09:46:52;;;;;;;1999.90;999.90;;;;;;;;;;4935986;29;20487;-63
2023/10/29 09:49:19;;;;;;;1999.90;999.90;;;;;;;;;;4935601;29;20346;-70
2023/10/29 09:51:45;;;;;;;1999.90;999.90;;;;;;;;;;4935829;29;20051;-69
2023/10/29 09:54:11;;;;;;;1999.90;999.90;;;;;;;;;;4935933;29;20440;-71
2023/10/29 09:56:37;;;;;;;1999.90;999.90;;;;;;;;;;4936037;29;20034;-65
2023/10/29 09:59:06;;;;;;;1999.90;999.90;;;;;;;;;;4935735;29;20704;-69
2023/10/29 10:01:32;;;;;;;1999.90;999.90;;;;;;;;;;4935530;29;20051;-63
2023/10/29 10:03:58;;;;;;;1999.90;999.90;;;;;;;;;;4935388;29;20035;-69
2023/10/29 10:06:27;;;;;;;1999.90;999.90;;;;;;;;;;4934928;29;20063;-69
2023/10/29 10:08:57;;;;;;;1999.90;999.90;;;;;;;;;;4935161;29;20526;-64
2023/10/29 10:11:24;;;;;;;1999.90;999.90;;;;;;;;;;4935750;29;20086;-64
2023/10/29 10:13:50;;;;;;;1999.90;999.90;;;;;;;;;;4935232;29;20063;-69
2023/10/29 10:16:16;;;;;;;1999.90;999.90;;;;;;;;;;4935833;29;20106;-63
2023/10/29 10:18:52;;;;;;;1999.90;999.90;;;;;;;;;;4935358;29;20031;-70
2023/10/29 10:21:20;;;;;;;1999.90;999.90;;;;;;;;;;4935675;29;20051;-70
2023/10/29 10:23:56;;;;;;;1999.90;999.90;;;;;;;;;;4935387;29;20132;-69
2023/10/29 10:26:33;;;;;;;1999.90;999.90;;;;;;;;;;4935340;29;20387;-65
2023/10/29 10:28:59;;;;;;;1999.90;999.90;;;;;;;;;;4935373;29;20032;-66
2023/10/29 10:31:27;;;;;;;1999.90;999.90;;;;;;;;;;4935267;29;20032;-65
2023/10/29 10:34:09;;;;;;;1999.90;999.90;;;;;;;;;;4935110;29;20027;-65
2023/10/29 10:36:35;;;;;;;1999.90;999.90;;;;;;;;;;4935013;29;20107;-69
2023/10/29 10:39:01;;;;;;;1999.90;999.90;;;;;;;;;;4935156;29;20503;-66
2023/10/29 10:41:43;;;;;;;1999.90;999.90;;;;;;;;;;4935182;29;20031;-62
2023/10/29 10:44:10;;;;;;;1999.90;999.90;;;;;;;;;;4934952;29;20035;-69
2023/10/29 10:46:37;;;;;;;1999.90;999.90;;;;;;;;;;4934924;29;20031;-65
2023/10/29 10:49:07;;;;;;;1999.90;999.90;;;;;;;;;;4935014;29;20472;-70
2023/10/29 10:51:35;;;;;;;1999.90;999.90;;;;;;;;;;4934892;29;20090;-71
2023/10/29 10:54:03;;;;;;;1999.90;999.90;;;;;;;;;;4934909;29;20042;-71
2023/10/29 10:56:35;;;;;;;1999.90;999.90;;;;;;;;;;4934783;29;20054;-70
2023/10/29 10:59:05;;;;;;;1999.90;999.90;;;;;;;;;;4934730;29;20099;-69
2023/10/29 11:01:32;;;;;;;1999.90;999.90;;;;;;;;;;4934510;29;20032;-66
2023/10/29 11:03:59;;;;;;;1999.90;999.90;;;;;;;;;;4935089;29;20058;-64
2023/10/29 11:06:25;;;;;;;1999.90;999.90;;;;;;;;;;4934477;29;20039;-69
2023/10/29 11:08:52;;;;;;;1999.90;999.90;;;;;;;;;;4934718;29;20056;-64
2023/10/29 11:11:19;;;;;;;1999.90;999.90;;;;;;;;;;4934677;29;20066;-65
2023/10/29 11:13:45;;;;;;;1999.90;999.90;;;;;;;;;;4934643;29;20507;-71
2023/10/29 11:16:24;;;;;;;1999.90;999.90;;;;;;;;;;4934535;29;20030;-64
2023/10/29 11:18:50;;;;;;;1999.90;999.90;;;;;;;;;;4933494;29;20086;-64
2023/10/29 11:21:33;;;;;;;1999.90;999.90;;;;;;;;;;4934701;29;20031;-68
2023/10/29 11:24:18;;;;;;;1999.90;999.90;;;;;;;;;;4934287;29;20613;-64
2023/10/29 11:26:45;;;;;;;1999.90;999.90;;;;;;;;;;4934665;29;20421;-63
2023/10/29 11:29:31;;;;;;;1999.90;999.90;;;;;;;;;;4934116;29;20046;-64
2023/10/29 11:32:17;;;;;;;1999.90;999.90;;;;;;;;;;4933931;29;20074;-63
2023/10/29 11:34:43;;;;;;;1999.90;999.90;;;;;;;;;;4934042;29;20035;-71
2023/10/29 11:37:27;;;;;;;1999.90;999.90;;;;;;;;;;4934262;29;20043;-63
2023/10/29 11:39:53;;;;;;;1999.90;999.90;;;;;;;;;;4934164;29;20042;-66
2023/10/29 11:42:27;;;;;;;1999.90;999.90;;;;;;;;;;4934358;29;20051;-64
2023/10/29 11:45:13;;;;;;;1999.90;999.90;;;;;;;;;;4934046;29;20051;-70
2023/10/29 11:47:57;;;;;;;1999.90;999.90;;;;;;;;;;4934242;29;20035;-64
2023/10/29 11:50:23;;;;;;;1999.90;999.90;;;;;;;;;;4934143;29;20031;-66
2023/10/29 11:52:49;;;;;;;1999.90;999.90;;;;;;;;;;4933909;29;20046;-64
2023/10/29 11:55:17;;;;;;;1999.90;999.90;;;;;;;;;;4934105;29;20460;-71
2023/10/29 11:57:44;;;;;;;1999.90;999.90;;;;;;;;;;4934428;29;20059;-68
2023/10/29 12:00:10;;;;;;;1999.90;999.90;;;;;;;;;;4933977;29;20059;-62
2023/10/29 12:02:37;;;;;;;1999.90;999.90;;;;;;;;;;4933958;29;20066;-71
2023/10/29 12:05:08;;;;;;;1999.90;999.90;;;;;;;;;;4934126;29;20083;-71
2023/10/29 12:07:34;;;;;;;1999.90;999.90;;;;;;;;;;4933747;29;20522;-72
2023/10/29 12:10:01;;;;;;;1999.90;999.90;;;;;;;;;;4933605;29;20387;-67
2023/10/29 12:12:27;;;;;;;1999.90;999.90;;;;;;;;;;4933359;29;20099;-70
2023/10/29 12:14:53;;;;;;;1999.90;999.90;;;;;;;;;;4933732;29;20055;-69
2023/10/29 12:17:19;;;;;;;1999.90;999.90;;;;;;;;;;4933490;29;20063;-70
2023/10/29 12:19:45;;;;;;;1999.90;999.90;;;;;;;;;;4948261;29;20540;-68
2023/10/29 12:22:17;;;;;;;1999.90;999.90;;;;;;;;;;4933510;29;20114;-71
2023/10/29 12:24:43;;;;;;;1999.90;999.90;;;;;;;;;;4933317;29;20065;-70
2023/10/29 12:27:10;;;;;;;1999.90;999.90;;;;;;;;;;4933744;29;20051;-71
2023/10/29 12:29:36;;;;;;;1999.90;999.90;;;;;;;;;;4933263;29;20028;-72
2023/10/29 12:32:02;;;;;;;1999.90;999.90;;;;;;;;;;4933253;29;20111;-72
2023/10/29 12:34:28;;;;;;;1999.90;999.90;;;;;;;;;;4933598;29;20024;-72
2023/10/29 12:36:54;;;;;;;1999.90;999.90;;;;;;;;;;4933087;29;20040;-71
2023/10/29 12:39:20;;;;;;;1999.90;999.90;;;;;;;;;;4933450;29;20035;-68
2023/10/29 12:41:53;;;;;;;1999.90;999.90;;;;;;;;;;4933437;29;20484;-72
2023/10/29 12:44:19;;;;;;;1999.90;999.90;;;;;;;;;;4933253;29;20028;-72
2023/10/29 12:46:51;;;;;;;1999.90;999.90;;;;;;;;;;4933322;29;20502;-72
2023/10/29 12:49:33;;;;;;;1999.90;999.90;;;;;;;;;;4933015;29;20064;-69
2023/10/29 12:52:01;;;;;;;1999.90;999.90;;;;;;;;;;4933429;29;20039;-70
2023/10/29 12:54:28;;;;;;;1999.90;999.90;;;;;;;;;;4933126;29;20031;-69
2023/10/29 12:56:58;;;;;;;1999.90;999.90;;;;;;;;;;4933282;29;20472;-70
2023/10/29 12:59:33;;;;;;;1999.90;999.90;;;;;;;;;;4932945;29;20035;-68
2023/10/29 13:02:04;;;;;;;1999.90;999.90;;;;;;;;;;4933090;29;20388;-70
2023/10/29 13:04:30;;;;;;;1999.90;999.90;;;;;;;;;;4932759;29;20024;-72
2023/10/29 13:06:57;;;;;;;1999.90;999.90;;;;;;;;;;4932779;29;20031;-69
2023/10/29 13:09:25;;;;;;;1999.90;999.90;;;;;;;;;;4932765;29;20083;-69
2023/10/29 13:11:54;;;;;;;1999.90;999.90;;;;;;;;;;4933078;29;20032;-69
2023/10/29 13:14:24;;;;;;;1999.90;999.90;;;;;;;;;;4932805;29;20042;-72
2023/10/29 13:16:53;;;;;;;1999.90;999.90;;;;;;;;;;4932916;29;20034;-72
2023/10/29 13:19:20;;;;;;;1999.90;999.90;;;;;;;;;;4932812;29;20039;-71
2023/10/29 13:21:46;;;;;;;1999.90;999.90;;;;;;;;;;4933110;29;20031;-69
2023/10/29 13:24:12;;;;;;;1999.90;999.90;;;;;;;;;;4932850;29;20050;-69
2023/10/29 13:26:40;;;;;;;1999.90;999.90;;;;;;;;;;4933017;29;20034;-72
2023/10/29 13:29:07;;;;;;;1999.90;999.90;;;;;;;;;;4933197;29;20024;-67
2023/10/29 13:31:33;;;;;;;1999.90;999.90;;;;;;;;;;4932822;29;20031;-70
2023/10/29 13:34:00;;;;;;;1999.90;999.90;;;;;;;;;;4932604;29;20044;-70
2023/10/29 13:36:28;;;;;;;1999.90;999.90;;;;;;;;;;4932921;29;20114;-70
2023/10/29 13:38:54;;;;;;;1999.90;999.90;;;;;;;;;;4932449;29;20038;-70
2023/10/29 13:41:21;;;;;;;1999.90;999.90;;;;;;;;;;4932790;29;20016;-70